createdAt,value
2018-04-10T00:00:27.148Z,15.47
2018-04-10T00:02:57.702Z,15.32
2018-04-10T00:05:27.546Z,27.40
2018-04-10T00:07:58.752Z,17.10
2018-04-10T00:10:29.730Z,20.30
2018-04-10T00:13:00.144Z,13.57
2018-04-10T00:15:29.914Z,15.73
2018-04-10T00:18:00.490Z,22.40
2018-04-10T00:20:30.327Z,22.05
2018-04-10T00:23:00.100Z,15.07
2018-04-10T00:25:29.955Z,20.90
2018-04-10T00:27:59.795Z,17.70
2018-04-10T00:30:30.729Z,13.30
2018-04-10T00:33:01.580Z,18.60
2018-04-10T00:35:33.284Z,22.30
2018-04-10T00:38:04.368Z,19.00
2018-04-10T00:40:34.895Z,16.48
2018-04-10T00:43:05.462Z,19.90
2018-04-10T00:45:35.254Z,11.95
2018-04-10T00:48:05.073Z,21.77
2018-04-10T00:50:35.165Z,17.00
2018-04-10T00:53:16.740Z,22.70
2018-04-10T00:55:46.546Z,16.90
2018-04-10T00:58:16.382Z,18.73
2018-04-10T01:00:48.264Z,26.17
2018-04-10T01:03:18.019Z,18.60
2018-04-10T01:05:48.682Z,25.03
2018-04-10T01:08:19.262Z,18.80
2018-04-10T01:10:50.283Z,16.58
2018-04-10T01:13:21.167Z,25.95
2018-04-10T01:15:52.434Z,17.90
2018-04-10T01:18:22.966Z,22.90
2018-04-10T01:20:53.535Z,14.67
2018-04-10T01:23:23.342Z,14.73
2018-04-10T01:25:53.195Z,17.73
2018-04-10T01:28:23.312Z,24.13
2018-04-10T01:30:53.083Z,20.13
2018-04-10T01:33:23.114Z,25.08
2018-04-10T01:35:53.550Z,20.43
2018-04-10T01:38:23.374Z,17.37
2018-04-10T01:40:53.175Z,17.10
2018-04-10T01:43:23.199Z,15.63
2018-04-10T01:45:52.964Z,13.70
2018-04-10T01:48:22.848Z,13.10
2018-04-10T01:50:52.611Z,15.97
2018-04-10T01:53:22.399Z,28.03
2018-04-10T01:55:54.033Z,17.13
2018-04-10T01:58:24.616Z,28.37
2018-04-10T02:00:54.860Z,24.50
2018-04-10T02:03:24.705Z,28.53
2018-04-10T02:05:55.902Z,21.60
2018-04-10T02:08:25.693Z,19.50
2018-04-10T02:10:55.619Z,15.40
2018-04-10T02:13:25.383Z,23.70
2018-04-10T02:15:55.905Z,13.33
2018-04-10T02:18:27.496Z,16.33
2018-04-10T11:34:19.387Z,14.87
2018-04-10T11:36:49.246Z,18.70
2018-04-10T11:39:19.807Z,15.30
2018-04-10T11:41:49.608Z,13.27
2018-04-10T11:44:20.448Z,13.90
2018-04-10T11:46:51.040Z,25.63
2018-04-10T11:49:20.839Z,16.33
2018-04-10T11:51:50.633Z,10.60
2018-04-10T11:54:21.356Z,6.17
2018-04-10T11:56:51.160Z,7.13
2018-04-10T11:59:21.552Z,3.62
2018-04-10T12:01:52.080Z,2.33
2018-04-10T12:04:22.649Z,6.03
2018-04-10T12:06:52.602Z,6.13
2018-04-10T12:09:22.358Z,3.70
2018-04-10T12:11:52.894Z,11.50
2018-04-10T12:14:22.695Z,6.97
2018-04-10T12:16:52.777Z,12.07
2018-04-10T12:19:22.564Z,4.90
2018-04-10T12:21:53.997Z,5.13
2018-04-10T12:24:24.686Z,4.10
2018-04-10T12:26:56.193Z,13.10
2018-04-10T12:29:26.047Z,10.00
2018-04-10T12:31:56.183Z,4.87
2018-04-10T12:34:27.132Z,2.40
2018-04-10T12:36:56.936Z,2.60
2018-04-10T12:39:27.180Z,4.77
2018-04-10T12:41:56.986Z,4.40
2018-04-10T12:44:27.234Z,7.23
2018-04-10T12:46:57.199Z,7.60
2018-04-10T12:49:27.775Z,4.83
2018-04-10T12:51:57.562Z,5.47
2018-04-10T12:54:27.382Z,6.27
2018-04-10T12:56:57.535Z,4.35
2018-04-10T12:59:27.361Z,5.30
2018-04-10T13:01:58.888Z,4.22
2018-04-10T13:04:28.678Z,5.90
2018-04-10T13:06:58.504Z,22.90
2018-04-10T13:09:28.277Z,6.57
2018-04-10T13:11:58.510Z,4.87
2018-04-10T13:14:28.506Z,9.03
2018-04-10T13:16:59.959Z,15.73
2018-04-10T13:19:30.557Z,4.93
2018-04-10T13:22:01.569Z,5.40
2018-04-10T13:24:31.699Z,6.40
2018-04-10T13:27:01.574Z,4.53
2018-04-10T13:29:31.717Z,6.73
2018-04-10T13:32:01.488Z,4.30
2018-04-10T13:34:32.094Z,9.73
2018-04-10T13:37:01.877Z,8.50
2018-04-10T13:39:31.639Z,4.53
2018-04-10T13:42:02.215Z,5.97
2018-04-10T13:44:32.034Z,7.00
2018-04-10T13:47:01.863Z,6.60
2018-04-10T13:49:33.011Z,4.90
2018-04-10T13:52:03.074Z,5.70
2018-04-10T13:54:33.531Z,7.20
2018-04-10T13:57:03.436Z,9.87
2018-04-10T13:59:33.245Z,7.93
2018-04-10T14:02:03.411Z,36.97
2018-04-10T14:04:33.463Z,5.43
2018-04-10T14:07:03.431Z,6.97
2018-04-10T14:09:33.320Z,8.90
2018-04-10T14:12:03.143Z,12.23
2018-04-10T14:14:32.934Z,4.67
2018-04-10T14:17:02.991Z,4.28
2018-04-10T14:19:32.797Z,11.93
2018-04-10T14:22:03.323Z,6.73
2018-04-10T14:24:33.287Z,6.87
2018-04-10T14:27:04.143Z,6.10
2018-04-10T14:29:33.971Z,8.90
2018-04-10T14:32:04.243Z,6.20
2018-04-10T14:34:35.006Z,7.03
2018-04-10T14:37:05.002Z,14.47
2018-04-10T14:39:35.693Z,15.93
2018-04-10T14:42:05.617Z,9.30
2018-04-10T14:44:35.389Z,13.73
2018-04-10T14:47:05.583Z,12.70
2018-04-10T14:49:36.245Z,6.10
2018-04-10T14:52:07.277Z,15.00
2018-04-10T14:54:38.260Z,18.83
2018-04-10T14:57:08.417Z,11.57
2018-04-10T14:59:38.810Z,7.80
2018-04-10T15:02:08.623Z,9.27
2018-04-10T15:04:38.505Z,8.10
2018-04-10T15:07:08.345Z,13.75
2018-04-10T15:09:38.289Z,7.37
2018-04-10T15:12:09.016Z,5.50
2018-04-10T15:14:39.629Z,7.43
2018-04-10T15:17:09.468Z,11.60
2018-04-10T15:19:40.156Z,9.10
2018-04-10T15:22:09.984Z,12.35
2018-04-10T15:24:39.791Z,7.00
2018-04-10T15:27:09.567Z,11.02
2018-04-10T15:29:39.423Z,5.13
2018-04-10T15:32:09.256Z,6.77
2018-04-10T15:34:39.820Z,12.80
2018-04-10T15:37:09.639Z,5.50
2018-04-10T15:39:39.443Z,8.37
2018-04-10T15:42:09.231Z,4.80
2018-04-10T15:44:40.815Z,4.37
2018-04-10T15:47:10.942Z,14.33
2018-04-10T15:49:40.738Z,11.10
2018-04-10T15:52:10.578Z,9.63
2018-04-10T15:54:40.364Z,6.43
2018-04-10T15:57:10.116Z,13.07
2018-04-10T15:59:40.036Z,11.10
2018-04-10T16:02:10.585Z,14.20
2018-04-10T16:04:41.163Z,11.97
2018-04-10T16:07:11.378Z,18.80
2018-04-10T16:09:41.208Z,16.07
2018-04-10T16:12:11.030Z,9.20
2018-04-10T16:14:42.654Z,6.43
2018-04-10T16:17:13.004Z,5.47
2018-04-10T16:19:42.823Z,14.30
2018-04-10T16:22:12.614Z,11.10
2018-04-10T16:24:42.400Z,13.15
2018-04-10T16:27:13.275Z,13.25
2018-04-10T16:29:44.553Z,10.83
2018-04-10T16:32:15.148Z,9.60
2018-04-10T16:34:45.393Z,12.80
2018-04-10T16:37:15.173Z,17.40
2018-04-10T16:39:44.957Z,9.80
2018-04-10T16:42:14.882Z,12.43
2018-04-10T16:44:44.663Z,13.97
2018-04-10T16:47:15.806Z,18.73
2018-04-10T16:49:47.593Z,9.53
2018-04-10T16:52:17.521Z,7.18
2018-04-10T16:54:47.411Z,11.63
2018-04-10T16:57:17.260Z,10.27
2018-04-10T16:59:47.081Z,9.73
2018-04-10T17:02:17.072Z,13.00
2018-04-10T17:04:46.852Z,13.23
2018-04-10T17:07:17.464Z,9.33
2018-04-10T17:09:48.798Z,12.75
2018-04-10T17:12:18.572Z,20.23
2018-04-10T17:14:48.459Z,13.52
2018-04-10T17:17:19.009Z,11.00
2018-04-10T17:19:48.867Z,10.97
2018-04-10T17:22:18.906Z,15.43
2018-04-10T17:24:49.548Z,16.83
2018-04-10T17:27:19.383Z,7.75
2018-04-10T17:29:49.376Z,20.33
2018-04-10T17:32:19.997Z,14.45
2018-04-10T17:34:50.566Z,18.37
2018-04-10T17:37:21.638Z,9.90
2018-04-10T17:39:51.429Z,16.00
2018-04-10T17:42:22.056Z,16.67
2018-04-10T17:44:51.848Z,27.50
2018-04-10T17:47:21.667Z,19.58
2018-04-10T17:49:51.753Z,19.23
2018-04-10T17:52:21.547Z,13.35
2018-04-10T17:54:52.202Z,11.33
2018-04-10T17:57:22.773Z,17.40
2018-04-10T17:59:52.567Z,15.00
2018-04-10T18:02:22.334Z,9.00
2018-04-10T18:04:52.134Z,12.80
2018-04-10T18:07:22.242Z,12.53
2018-04-10T18:09:52.015Z,21.53
2018-04-10T18:12:25.460Z,11.40
2018-04-10T18:14:56.184Z,14.77
2018-04-10T18:17:27.811Z,10.80
2018-04-10T18:19:57.639Z,12.63
2018-04-10T18:22:27.466Z,26.73
2018-04-10T18:24:57.252Z,26.27
2018-04-10T18:27:27.953Z,11.45
2018-04-10T18:29:58.487Z,18.87
2018-04-10T18:32:28.269Z,11.43
2018-04-10T18:34:58.074Z,19.83
2018-04-10T18:37:28.781Z,16.25
2018-04-10T18:39:58.642Z,24.20
2018-04-10T18:42:30.305Z,18.30
2018-04-10T18:45:01.207Z,16.50
2018-04-10T18:47:30.981Z,23.50
2018-04-10T18:50:01.753Z,20.93
2018-04-10T18:52:31.579Z,22.63
2018-04-10T18:55:01.410Z,19.10
2018-04-10T18:57:33.379Z,26.80
2018-04-10T19:00:03.920Z,19.60
2018-04-10T19:02:33.703Z,17.33
2018-04-10T19:05:04.235Z,25.80
2018-04-10T19:07:34.778Z,33.20
2018-04-10T19:10:06.413Z,27.33
2018-04-10T19:12:36.997Z,37.23
2018-04-10T19:15:06.756Z,33.38
2018-04-10T19:17:37.703Z,22.00
2018-04-10T19:20:08.256Z,33.23
2018-04-10T19:22:38.045Z,31.00
2018-04-10T19:25:08.630Z,33.63
2018-04-10T19:27:38.841Z,32.80
2018-04-10T19:30:08.578Z,37.50
2018-04-10T19:32:38.399Z,26.50
2018-04-10T19:35:09.143Z,44.53
2018-04-10T19:37:40.989Z,37.43
2018-04-10T19:40:10.814Z,34.43
2018-04-10T19:42:41.939Z,33.63
2018-04-10T19:45:11.676Z,29.52
2018-04-10T19:47:43.663Z,39.63
2018-04-10T19:50:13.794Z,28.30
2018-04-10T19:52:44.687Z,34.13
2018-04-10T19:55:15.264Z,42.20
2018-04-10T19:57:45.055Z,62.27
2018-04-10T20:00:15.751Z,38.10
2018-04-10T20:02:45.529Z,36.80
2018-04-10T20:05:15.327Z,36.65
2018-04-10T20:07:45.119Z,43.13
2018-04-10T20:10:15.265Z,33.03
2018-04-10T20:12:46.306Z,40.92
2018-04-10T20:15:16.103Z,33.85
2018-04-10T20:17:46.227Z,42.10
2018-04-10T20:20:16.305Z,39.50
2018-04-10T20:22:47.382Z,34.47
2018-04-10T20:25:17.163Z,37.07
2018-04-10T20:27:47.964Z,33.40
2018-04-10T20:30:17.818Z,46.30
2018-04-10T20:32:48.408Z,53.07
2018-04-10T20:35:19.151Z,31.85
2018-04-10T20:37:48.933Z,29.90
2018-04-10T20:40:18.740Z,41.30
2018-04-10T20:42:50.123Z,37.43
2018-04-10T20:45:20.820Z,43.47
2018-04-10T20:47:50.828Z,44.93
2018-04-10T20:50:20.758Z,34.92
2018-04-10T20:52:51.313Z,35.60
2018-04-10T20:55:21.094Z,34.47
2018-04-10T20:57:50.975Z,31.37
2018-04-10T21:00:21.516Z,25.93
2018-04-10T21:02:51.308Z,25.20
2018-04-10T21:05:21.919Z,39.90
2018-04-10T21:07:52.086Z,35.87
2018-04-10T21:10:21.844Z,38.40
2018-04-10T21:12:52.629Z,31.57
2018-04-10T21:15:22.448Z,34.50
2018-04-10T21:17:52.984Z,32.30
2018-04-10T21:20:23.681Z,38.23
2018-04-10T21:22:54.239Z,27.47
2018-04-10T21:25:24.062Z,47.25
2018-04-10T21:27:53.873Z,25.93
2018-04-10T21:30:23.725Z,30.70
2018-04-10T21:32:53.757Z,34.07
2018-04-10T21:35:24.358Z,33.13
2018-04-10T21:37:54.087Z,28.00
2018-04-10T21:40:23.921Z,48.33
2018-04-10T21:43:01.147Z,31.63
2018-04-10T21:45:30.926Z,29.60
2018-04-10T21:48:00.735Z,27.20
2018-04-10T21:50:31.319Z,32.43
2018-04-10T21:53:03.253Z,29.97
2018-04-10T21:55:33.482Z,33.97
2018-04-10T21:58:07.247Z,41.00
2018-04-10T22:00:37.292Z,25.25
2018-04-10T22:03:08.046Z,48.13
2018-04-10T22:05:38.538Z,27.90
2018-04-10T22:08:08.350Z,31.03
2018-04-10T22:10:38.167Z,32.47
2018-04-10T22:13:08.120Z,31.43
2018-04-10T22:15:40.330Z,33.67
2018-04-10T22:18:11.265Z,34.53
2018-04-10T22:20:41.898Z,33.43
2018-04-10T22:23:12.575Z,25.17
2018-04-10T22:25:42.410Z,21.52
2018-04-10T22:28:13.346Z,30.90
2018-04-10T22:30:43.230Z,30.77
2018-04-10T22:33:13.008Z,27.47
2018-04-10T22:35:47.912Z,31.30
2018-04-10T22:38:18.822Z,20.50
2018-04-10T22:40:48.626Z,24.87
2018-04-10T22:43:18.402Z,33.23
2018-04-10T22:45:48.972Z,24.43
2018-04-10T22:48:18.819Z,18.77
2018-04-10T22:50:48.668Z,23.93
2018-04-10T22:53:18.532Z,20.90
2018-04-10T22:55:49.313Z,35.57
2018-04-10T22:58:20.064Z,15.25
2018-04-10T23:00:50.958Z,19.30
2018-04-10T23:03:20.733Z,17.75
2018-04-10T23:05:52.112Z,16.37
2018-04-10T23:08:22.666Z,18.07
2018-04-10T23:10:52.487Z,24.80
2018-04-10T23:13:22.307Z,15.25
2018-04-10T23:15:52.262Z,14.90
2018-04-10T23:18:22.315Z,15.23
2018-04-10T23:20:54.275Z,15.67
2018-04-10T23:23:25.156Z,16.85
2018-04-10T23:25:54.959Z,16.93
2018-04-10T23:28:24.743Z,11.43
2018-04-10T23:30:55.318Z,22.20
2018-04-10T23:33:25.293Z,12.27
2018-04-10T23:35:56.745Z,17.57
2018-04-10T23:38:27.900Z,12.68
2018-04-10T23:40:58.677Z,12.60
2018-04-10T23:43:29.675Z,19.95
2018-04-10T23:46:00.416Z,15.83
2018-04-10T23:48:31.306Z,19.67
2018-04-10T23:51:01.153Z,14.77
2018-04-10T23:53:32.614Z,12.33
2018-04-10T23:56:03.157Z,16.73
2018-04-10T23:58:34.114Z,17.08
